Bao An Cheng 69 — BVBD5 — position and weather

sailwx.info

Track history (hours):
 
Tides and Currents Weather Stations Pressure Air Temp Water Temp Dewpoint Dewpoint Depression Visibility Wind Speed Wind Dir Waves Ship Positions

Bao An Cheng 69

Last reported at 2015-Aug-02 14:04 UTC. Time now 2015-Aug-02 18:21 UTC.
Position N 20°02' E 110°17'.

Length 121 m; draft 6.4 m.

Type: Cargo ship. MMSI: 412703090.

Date/timePositionNaut miles runAvg speedWind from/ knotsBaromVisibWave heightAir tempDewpointWater temp
2015-Aug-02 14:04N 20°02' E 110°17'1 1.4
2015-Aug-02 13:28N 20°03' E 110°16'3 0.2
2015-Aug-02 01:29N 20°05' E 110°16'7 7.4
2015-Aug-02 00:31N 20°12' E 110°18'264 9.7
2015-Jul-31 21:13N 22°10' E 114°32'215 9.0
2015-Jul-30 21:15N 23°52' E 117°58'9 9.7
2015-Jul-30 20:19N 23°57' E 118°06'810.0
2015-Jul-30 19:33N 24°03' E 118°11'1010.1
2015-Jul-30 18:33N 24°10' E 118°20'31 9.9
2015-Jul-30 15:24N 24°33' E 118°42'8 9.5
2015-Jul-30 14:32N 24°41' E 118°47'7 7.6
2015-Jul-30 13:33N 24°48' E 118°47'3 1.6
2015-Jul-30 11:27N 24°49' E 118°43'0 0.0
2015-Jul-30 07:27N 24°49' E 118°43'0 0.0
2015-Jul-30 06:32N 24°49' E 118°43'0 0.0
2015-Jul-30 04:08N 24°49' E 118°43'0 0.0
2015-Jul-30 03:26N 24°49' E 118°43'0 0.1
2015-Jul-30 02:32N 24°49' E 118°43'5 4.8
2015-Jul-30 01:33N 24°48' E 118°48'0 0.0
2015-Jul-30 00:31N 24°48' E 118°48'0 0.0
2015-Jul-29 23:31N 24°48' E 118°48'0 0.0
2015-Jul-29 21:31N 24°48' E 118°48'0 0.1
2015-Jul-29 20:31N 24°48' E 118°48'0 0.0
2015-Jul-29 19:19N 24°48' E 118°48'0 0.0
2015-Jul-29 18:07N 24°48' E 118°48'0 0.0
2015-Jul-29 17:25N 24°48' E 118°48'0 0.0
2015-Jul-29 16:13N 24°48' E 118°48'0 0.0
2015-Jul-29 15:21N 24°48' E 118°48'5 6.7
2015-Jul-29 14:33N 24°49' E 118°54'9 8.8
2015-Jul-29 13:33N 24°52' E 119°03'326 8.1
2015-Jul-27 21:16N 29°25' E 122°22'7 8.9
2015-Jul-27 20:31N 29°31' E 122°25'11 9.0
2015-Jul-27 19:19N 29°41' E 122°30'8 9.7
2015-Jul-27 18:30N 29°49' E 122°33'1210.3
2015-Jul-27 17:18N 30°01' E 122°35'7 9.8
2015-Jul-27 16:33N 30°08' E 122°36'1210.2
2015-Jul-27 15:22N 30°20' E 122°35'810.1
2015-Jul-27 14:32N 30°28' E 122°32'10 9.7
2015-Jul-27 13:33N 30°36' E 122°25'8 8.2
2015-Jul-27 12:33N 30°42' E 122°20'8 7.9
2015-Jul-27 11:34N 30°50' E 122°17'8 7.9
2015-Jul-27 10:34N 30°57' E 122°14'7 7.0
2015-Jul-27 09:34N 31°03' E 122°08'7 7.4
2015-Jul-27 08:34N 31°05' E 122°00'9 8.8
2015-Jul-27 07:33N 31°10' E 121°52'1110.9
2015-Jul-27 06:33N 31°18' E 121°43'1010.0
2015-Jul-27 05:33N 31°23' E 121°33'3 2.9
2015-Jul-27 04:34N 31°21' E 121°32'1 1.1
2015-Jul-27 03:21N 31°21' E 121°30'0 0.0
2015-Jul-27 02:27N 31°21' E 121°30'0 0.0
2015-Jul-27 01:30N 31°21' E 121°30'0 0.0
2015-Jul-27 00:21N 31°21' E 121°30'0 0.1
2015-Jul-26 23:33N 31°21' E 121°30'0 0.0
2015-Jul-26 22:24N 31°21' E 121°30'0 0.0
2015-Jul-26 21:33N 31°21' E 121°30'0 0.0
2015-Jul-26 20:30N 31°21' E 121°30'0 0.0
2015-Jul-26 19:30N 31°21' E 121°30'0 0.0
2015-Jul-26 18:27N 31°21' E 121°30'0 0.0
2015-Jul-26 17:27N 31°21' E 121°30'0 0.2
2015-Jul-26 16:33N 31°21' E 121°30'4 3.8
2015-Jul-26 15:33N 31°24' E 121°34'4 3.5
2015-Jul-26 14:33N 31°23' E 121°38'0 0.1
2015-Jul-26 13:30N 31°23' E 121°37'0 0.1
2015-Jul-26 12:33N 31°23' E 121°37'0 0.0
2015-Jul-26 11:33N 31°23' E 121°37'0 0.0
2015-Jul-26 10:26N 31°23' E 121°37'6 7.1
2015-Jul-26 09:33N 31°19' E 121°43'1010.5
2015-Jul-26 08:33N 31°11' E 121°51'10 9.9
2015-Jul-26 07:33N 31°05' E 122°00'10 9.8
2015-Jul-26 06:33N 31°02' E 122°11'8 8.3
2015-Jul-26 05:33N 30°55' E 122°17'8 7.0
2015-Jul-26 04:28N 30°48' E 122°19'7 7.3
2015-Jul-26 03:28N 30°41' E 122°21'7 7.2
2015-Jul-26 02:29N 30°35' E 122°26'42 8.4
2015-Jul-25 21:27N 29°53' E 122°35'12 9.5
2015-Jul-25 20:11N 29°42' E 122°31'29510.3
2015-Jul-24 15:25N 25°22' E 119°52'1210.6
2015-Jul-24 14:15N 25°12' E 119°44'811.1
2015-Jul-24 13:33N 25°08' E 119°37'3311.0
2015-Jul-24 10:33N 24°52' E 119°05'1110.7
2015-Jul-24 09:33N 24°49' E 118°54'9 8.7
2015-Jul-24 08:32N 24°49' E 118°44'1 0.5
2015-Jul-24 07:30N 24°49' E 118°43'0 0.0
2015-Jul-24 06:30N 24°49' E 118°43'0 0.0
2015-Jul-24 05:30N 24°49' E 118°43'0 0.0
2015-Jul-24 03:18N 24°49' E 118°43'0 0.1
2015-Jul-24 02:30N 24°49' E 118°44'0 0.0
2015-Jul-24 01:18N 24°49' E 118°43'0 0.0
2015-Jul-24 00:30N 24°49' E 118°43'0 0.0
2015-Jul-23 23:18N 24°49' E 118°43'0 0.0
2015-Jul-23 22:30N 24°49' E 118°43'0 0.0
2015-Jul-23 21:06N 24°49' E 118°43'0 0.0
2015-Jul-23 20:24N 24°49' E 118°43'0 0.0
2015-Jul-23 19:30N 24°49' E 118°43'0 0.5
2015-Jul-23 18:33N 24°49' E 118°44'4 3.7
2015-Jul-23 17:26N 24°47' E 118°48'0 0.0
2015-Jul-23 16:32N 24°47' E 118°48'0 0.1
2015-Jul-23 15:32N 24°47' E 118°48'0 0.1
2015-Jul-23 14:20N 24°47' E 118°48'  
Track history (hours):
 
Tides and Currents Weather Stations Pressure Air Temp Water Temp Dewpoint Dewpoint Depression Visibility Wind Speed Wind Dir Waves Ship Positions

Bao An Cheng 69

Last reported at 2015-Aug-02 14:04 UTC. Time now 2015-Aug-02 18:21 UTC.
Position N 20°02' E 110°17'.

Length 121 m; draft 6.4 m.

Type: Cargo ship. MMSI: 412703090.

Date/timePositionNaut miles runAvg speedWind from/ knotsBaromVisibWave heightAir tempDewpointWater temp
2015-Aug-02 14:04N 20°02' E 110°17'1 1.4
2015-Aug-02 13:28N 20°03' E 110°16'3 0.2
2015-Aug-02 01:29N 20°05' E 110°16'7 7.4
2015-Aug-02 00:31N 20°12' E 110°18'264 9.7
2015-Jul-31 21:13N 22°10' E 114°32'215 9.0
2015-Jul-30 21:15N 23°52' E 117°58'9 9.7
2015-Jul-30 20:19N 23°57' E 118°06'810.0
2015-Jul-30 19:33N 24°03' E 118°11'1010.1
2015-Jul-30 18:33N 24°10' E 118°20'31 9.9
2015-Jul-30 15:24N 24°33' E 118°42'8 9.5
2015-Jul-30 14:32N 24°41' E 118°47'7 7.6
2015-Jul-30 13:33N 24°48' E 118°47'3 1.6
2015-Jul-30 11:27N 24°49' E 118°43'0 0.0
2015-Jul-30 07:27N 24°49' E 118°43'0 0.0
2015-Jul-30 06:32N 24°49' E 118°43'0 0.0
2015-Jul-30 04:08N 24°49' E 118°43'0 0.0
2015-Jul-30 03:26N 24°49' E 118°43'0 0.1
2015-Jul-30 02:32N 24°49' E 118°43'5 4.8
2015-Jul-30 01:33N 24°48' E 118°48'0 0.0
2015-Jul-30 00:31N 24°48' E 118°48'0 0.0
2015-Jul-29 23:31N 24°48' E 118°48'0 0.0
2015-Jul-29 21:31N 24°48' E 118°48'0 0.1
2015-Jul-29 20:31N 24°48' E 118°48'0 0.0
2015-Jul-29 19:19N 24°48' E 118°48'0 0.0
2015-Jul-29 18:07N 24°48' E 118°48'0 0.0
2015-Jul-29 17:25N 24°48' E 118°48'0 0.0
2015-Jul-29 16:13N 24°48' E 118°48'0 0.0
2015-Jul-29 15:21N 24°48' E 118°48'5 6.7
2015-Jul-29 14:33N 24°49' E 118°54'9 8.8
2015-Jul-29 13:33N 24°52' E 119°03'326 8.1
2015-Jul-27 21:16N 29°25' E 122°22'7 8.9
2015-Jul-27 20:31N 29°31' E 122°25'11 9.0
2015-Jul-27 19:19N 29°41' E 122°30'8 9.7
2015-Jul-27 18:30N 29°49' E 122°33'1210.3
2015-Jul-27 17:18N 30°01' E 122°35'7 9.8
2015-Jul-27 16:33N 30°08' E 122°36'1210.2
2015-Jul-27 15:22N 30°20' E 122°35'810.1
2015-Jul-27 14:32N 30°28' E 122°32'10 9.7
2015-Jul-27 13:33N 30°36' E 122°25'8 8.2
2015-Jul-27 12:33N 30°42' E 122°20'8 7.9
2015-Jul-27 11:34N 30°50' E 122°17'8 7.9
2015-Jul-27 10:34N 30°57' E 122°14'7 7.0
2015-Jul-27 09:34N 31°03' E 122°08'7 7.4
2015-Jul-27 08:34N 31°05' E 122°00'9 8.8
2015-Jul-27 07:33N 31°10' E 121°52'1110.9
2015-Jul-27 06:33N 31°18' E 121°43'1010.0
2015-Jul-27 05:33N 31°23' E 121°33'3 2.9
2015-Jul-27 04:34N 31°21' E 121°32'1 1.1
2015-Jul-27 03:21N 31°21' E 121°30'0 0.0
2015-Jul-27 02:27N 31°21' E 121°30'0 0.0
2015-Jul-27 01:30N 31°21' E 121°30'0 0.0
2015-Jul-27 00:21N 31°21' E 121°30'0 0.1
2015-Jul-26 23:33N 31°21' E 121°30'0 0.0
2015-Jul-26 22:24N 31°21' E 121°30'0 0.0
2015-Jul-26 21:33N 31°21' E 121°30'0 0.0
2015-Jul-26 20:30N 31°21' E 121°30'0 0.0
2015-Jul-26 19:30N 31°21' E 121°30'0 0.0
2015-Jul-26 18:27N 31°21' E 121°30'0 0.0
2015-Jul-26 17:27N 31°21' E 121°30'0 0.2
2015-Jul-26 16:33N 31°21' E 121°30'4 3.8
2015-Jul-26 15:33N 31°24' E 121°34'4 3.5
2015-Jul-26 14:33N 31°23' E 121°38'0 0.1
2015-Jul-26 13:30N 31°23' E 121°37'0 0.1
2015-Jul-26 12:33N 31°23' E 121°37'0 0.0
2015-Jul-26 11:33N 31°23' E 121°37'0 0.0
2015-Jul-26 10:26N 31°23' E 121°37'6 7.1
2015-Jul-26 09:33N 31°19' E 121°43'1010.5
2015-Jul-26 08:33N 31°11' E 121°51'10 9.9
2015-Jul-26 07:33N 31°05' E 122°00'10 9.8
2015-Jul-26 06:33N 31°02' E 122°11'8 8.3
2015-Jul-26 05:33N 30°55' E 122°17'8 7.0
2015-Jul-26 04:28N 30°48' E 122°19'7 7.3
2015-Jul-26 03:28N 30°41' E 122°21'7 7.2
2015-Jul-26 02:29N 30°35' E 122°26'42 8.4
2015-Jul-25 21:27N 29°53' E 122°35'12 9.5
2015-Jul-25 20:11N 29°42' E 122°31'29510.3
2015-Jul-24 15:25N 25°22' E 119°52'1210.6
2015-Jul-24 14:15N 25°12' E 119°44'811.1
2015-Jul-24 13:33N 25°08' E 119°37'3311.0
2015-Jul-24 10:33N 24°52' E 119°05'1110.7
2015-Jul-24 09:33N 24°49' E 118°54'9 8.7
2015-Jul-24 08:32N 24°49' E 118°44'1 0.5
2015-Jul-24 07:30N 24°49' E 118°43'0 0.0
2015-Jul-24 06:30N 24°49' E 118°43'0 0.0
2015-Jul-24 05:30N 24°49' E 118°43'0 0.0
2015-Jul-24 03:18N 24°49' E 118°43'0 0.1
2015-Jul-24 02:30N 24°49' E 118°44'0 0.0
2015-Jul-24 01:18N 24°49' E 118°43'0 0.0
2015-Jul-24 00:30N 24°49' E 118°43'0 0.0
2015-Jul-23 23:18N 24°49' E 118°43'0 0.0
2015-Jul-23 22:30N 24°49' E 118°43'0 0.0
2015-Jul-23 21:06N 24°49' E 118°43'0 0.0
2015-Jul-23 20:24N 24°49' E 118°43'0 0.0
2015-Jul-23 19:30N 24°49' E 118°43'0 0.5
2015-Jul-23 18:33N 24°49' E 118°44'4 3.7
2015-Jul-23 17:26N 24°47' E 118°48'0 0.0
2015-Jul-23 16:32N 24°47' E 118°48'0 0.1
2015-Jul-23 15:32N 24°47' E 118°48'0 0.1
2015-Jul-23 14:20N 24°47' E 118°48'  

Dump ship's entire track history